createdAt,value
2019-05-16T00:03:32.792Z,76.41
2019-05-16T00:08:36.070Z,76.21
2019-05-16T00:13:39.444Z,75.78
2019-05-16T00:18:42.926Z,75.90
2019-05-16T00:23:48.380Z,75.23
2019-05-16T00:28:51.266Z,75.58
2019-05-16T00:33:54.565Z,75.76
2019-05-16T00:38:57.973Z,75.20
2019-05-16T00:44:01.228Z,75.32
2019-05-16T00:49:04.533Z,75.99
2019-05-16T00:54:08.355Z,76.11
2019-05-16T00:59:11.680Z,76.02
2019-05-16T01:04:14.968Z,76.03
2019-05-16T01:09:18.822Z,75.97
2019-05-16T01:14:22.223Z,76.20
2019-05-16T01:19:27.687Z,76.02
2019-05-16T01:24:30.545Z,76.16
2019-05-16T01:29:33.887Z,75.99
2019-05-16T01:34:37.799Z,75.58
2019-05-16T01:39:41.172Z,76.59
2019-05-16T01:44:44.631Z,75.83
2019-05-16T01:49:48.721Z,77.54
2019-05-16T01:54:52.191Z,76.40
2019-05-16T01:59:55.589Z,75.99
2019-05-16T02:04:59.162Z,77.71
2019-05-16T02:10:02.514Z,76.00
2019-05-16T02:15:07.837Z,77.91
2019-05-16T02:20:11.219Z,77.98
2019-05-16T02:25:14.778Z,77.14
2019-05-16T02:30:21.806Z,75.77
2019-05-16T02:35:23.356Z,75.67
2019-05-16T02:40:26.885Z,76.76
2019-05-16T02:45:32.604Z,77.71
2019-05-16T02:50:35.195Z,77.15
2019-05-16T02:55:40.967Z,76.44
2019-05-16T03:00:43.546Z,75.99
2019-05-16T03:05:50.574Z,75.54
2019-05-16T03:10:53.385Z,75.76
2019-05-16T03:16:00.583Z,76.02
2019-05-16T03:21:02.865Z,76.31
2019-05-16T03:26:06.153Z,76.11
2019-05-16T03:31:14.171Z,76.72
2019-05-16T03:36:15.839Z,76.61
2019-05-16T03:41:21.561Z,76.68
2019-05-16T03:46:24.368Z,76.71
2019-05-16T03:51:30.681Z,77.07
2019-05-16T03:56:32.667Z,77.17
2019-05-16T04:01:35.948Z,77.52
2019-05-16T04:06:41.549Z,77.23
2019-05-16T04:11:44.258Z,76.90
2019-05-16T04:16:50.904Z,77.41
2019-05-16T04:21:52.586Z,77.18
2019-05-16T04:26:55.874Z,76.83
2019-05-16T04:32:01.446Z,77.21
2019-05-16T04:37:04.226Z,76.96
2019-05-16T04:42:11.052Z,76.82
2019-05-16T04:47:13.514Z,77.14
2019-05-16T04:52:16.792Z,76.77
2019-05-16T04:57:20.924Z,76.66
2019-05-16T05:02:24.360Z,76.51
2019-05-16T05:07:27.657Z,76.21
2019-05-16T05:12:31.662Z,76.13
2019-05-16T05:17:35.013Z,77.21
2019-05-16T05:22:39.816Z,75.12
2019-05-16T05:27:43.302Z,75.58
2019-05-16T05:32:46.584Z,76.26
2019-05-16T05:37:50.731Z,76.75
2019-05-16T05:42:54.145Z,75.26
2019-05-16T05:48:00.030Z,74.70
2019-05-16T05:53:02.459Z,74.45
2019-05-16T05:58:05.748Z,74.05
2019-05-16T06:03:10.699Z,73.70
2019-05-16T06:08:14.276Z,73.10
2019-05-16T06:13:20.202Z,73.27
2019-05-16T06:18:23.553Z,72.65
2019-05-16T06:23:26.876Z,72.65
2019-05-16T06:28:30.749Z,72.76
2019-05-16T06:33:34.324Z,73.22
2019-05-16T06:38:37.614Z,73.10
2019-05-16T06:43:40.903Z,72.76
2019-05-16T06:48:44.197Z,72.44
2019-05-16T06:53:49.833Z,72.61
2019-05-16T06:58:52.501Z,71.96
2019-05-16T07:03:55.777Z,72.28
2019-05-16T07:09:01.094Z,72.25
2019-05-16T07:14:04.153Z,71.48
2019-05-16T07:19:07.464Z,71.28
2019-05-16T07:24:11.115Z,72.25
2019-05-16T07:29:14.402Z,71.87
2019-05-16T07:34:17.689Z,72.09
2019-05-16T07:39:20.973Z,72.35
2019-05-16T07:44:25.185Z,72.39
2019-05-16T07:49:30.396Z,72.09
2019-05-16T07:54:34.596Z,72.68
2019-05-16T07:59:37.993Z,72.04
2019-05-16T08:04:41.277Z,71.99
2019-05-16T08:09:44.569Z,71.91
2019-05-16T08:14:50.127Z,71.81
2019-05-16T08:19:52.881Z,71.82
2019-05-16T08:25:02.362Z,72.19
2019-05-16T08:30:07.391Z,71.68
2019-05-16T08:35:11.325Z,71.44
2019-05-16T08:40:14.810Z,71.69
2019-05-16T08:45:21.010Z,71.66
2019-05-16T08:50:23.345Z,72.00
2019-05-16T08:55:26.707Z,71.76
2019-05-16T09:00:33.404Z,72.03
2019-05-16T09:05:35.195Z,71.75
2019-05-16T09:10:59.921Z,71.16
2019-05-16T09:15:43.642Z,71.50
2019-05-16T09:20:49.912Z,71.94
2019-05-16T09:25:52.356Z,71.70
2019-05-16T09:30:57.732Z,71.40
2019-05-16T09:36:01.725Z,71.66
2019-05-16T09:41:07.669Z,71.46
2019-05-16T09:46:16.966Z,71.04
2019-05-16T09:51:21.435Z,70.93
2019-05-16T09:56:27.060Z,70.70
2019-05-16T10:01:29.928Z,70.67
2019-05-16T10:06:34.205Z,71.16
2019-05-16T10:11:41.759Z,71.47
2019-05-16T10:16:43.695Z,69.93
2019-05-16T10:21:47.052Z,70.93
2019-05-16T10:26:54.027Z,70.40
2019-05-16T10:31:56.817Z,71.73
2019-05-16T10:37:00.330Z,70.53
2019-05-16T10:42:03.696Z,73.50
2019-05-16T10:47:07.698Z,70.54
2019-05-16T10:52:11.058Z,69.10
2019-05-16T10:57:14.432Z,69.34
2019-05-16T11:02:19.750Z,70.30
2019-05-16T11:07:23.001Z,67.73
2019-05-16T11:12:45.211Z,68.12
2019-05-16T11:17:31.624Z,67.51
2019-05-16T11:22:37.060Z,67.30
2019-05-16T11:27:39.960Z,69.47
2019-05-16T11:32:43.248Z,69.24
2019-05-16T11:37:47.291Z,70.16
2019-05-16T11:43:05.464Z,69.35
2019-05-16T11:47:56.708Z,69.22
2019-05-16T11:53:00.100Z,70.73
2019-05-16T11:58:03.480Z,69.37
2019-05-16T12:03:06.776Z,71.23
2019-05-16T12:08:10.110Z,69.14
2019-05-16T12:13:25.217Z,69.64
2019-05-16T12:18:18.432Z,69.58
2019-05-16T12:23:22.850Z,69.38
2019-05-16T12:28:27.371Z,69.55
2019-05-16T12:33:30.708Z,68.58
2019-05-16T12:38:34.070Z,69.66
2019-05-16T12:43:45.890Z,69.52
2019-05-16T12:48:42.439Z,69.29
2019-05-16T12:53:47.708Z,68.94
2019-05-16T12:58:51.074Z,68.58
2019-05-16T13:03:54.445Z,69.03
2019-05-16T13:08:59.707Z,68.34
2019-05-16T13:14:08.024Z,69.17
2019-05-16T13:19:09.488Z,67.46
2019-05-16T13:24:12.773Z,66.52
2019-05-16T13:29:18.124Z,66.10
2019-05-16T13:34:21.107Z,67.17
2019-05-16T13:39:24.400Z,67.64
2019-05-16T13:44:27.704Z,67.44
2019-05-16T13:49:30.999Z,69.14
2019-05-16T13:54:36.356Z,68.90
2019-05-16T13:59:39.365Z,69.23
2019-05-16T14:04:43.792Z,68.80
2019-05-16T14:09:47.397Z,69.61
2019-05-16T14:14:52.003Z,70.03
2019-05-16T14:19:57.321Z,70.59
2019-05-16T14:25:00.327Z,71.00
2019-05-16T14:30:07.486Z,71.29
2019-05-16T14:35:10.110Z,71.34
2019-05-16T14:40:13.632Z,71.79
2019-05-16T14:45:18.274Z,72.07
2019-05-16T14:50:21.639Z,71.72
2019-05-16T14:55:27.408Z,71.94
2019-05-16T15:00:30.227Z,71.76
2019-05-16T15:05:33.568Z,71.99
2019-05-16T15:10:37.585Z,73.17
2019-05-16T15:15:41.202Z,73.18
2019-05-16T15:20:46.881Z,74.08
2019-05-16T15:25:49.549Z,74.47
2019-05-16T15:30:52.853Z,74.05
2019-05-16T15:35:57.745Z,74.82
2019-05-16T15:41:01.248Z,76.15
2019-05-16T15:46:07.640Z,74.01
2019-05-16T15:51:09.586Z,74.06
2019-05-16T15:56:12.881Z,74.15
2019-05-16T16:01:18.566Z,73.97
2019-05-16T16:06:22.010Z,74.04
2019-05-16T16:11:27.302Z,74.45
2019-05-16T16:16:30.340Z,74.39
2019-05-16T16:21:33.640Z,75.67
2019-05-16T16:26:38.201Z,75.12
2019-05-16T16:31:41.615Z,75.04
2019-05-16T16:36:47.388Z,75.11
2019-05-16T16:41:49.923Z,75.26
2019-05-16T16:46:53.231Z,75.47
2019-05-16T16:51:57.273Z,75.53
2019-05-16T16:57:00.611Z,75.69
2019-05-16T17:02:03.921Z,75.30
2019-05-16T17:07:07.233Z,75.10
2019-05-16T17:12:10.533Z,76.37
2019-05-16T17:17:13.844Z,75.19
2019-05-16T17:22:20.786Z,75.40
2019-05-16T17:27:26.658Z,75.22
2019-05-16T17:32:31.197Z,75.52
2019-05-16T17:37:37.278Z,75.98
2019-05-16T17:42:39.507Z,76.55
2019-05-16T17:47:42.807Z,76.24
2019-05-16T17:52:47.644Z,77.33
2019-05-16T17:57:51.186Z,76.12
2019-05-16T18:02:56.898Z,76.60
2019-05-16T18:07:59.514Z,75.76
2019-05-16T18:13:02.820Z,76.00
2019-05-16T18:18:07.209Z,77.52
2019-05-16T18:23:10.782Z,76.41
2019-05-16T18:28:14.081Z,76.62
2019-05-16T18:33:17.438Z,77.61
2019-05-16T18:38:20.747Z,76.68
2019-05-16T18:43:24.033Z,77.21
2019-05-16T18:48:28.300Z,77.23
2019-05-16T18:53:31.589Z,77.61
2019-05-16T18:58:37.011Z,77.33
2019-05-16T19:03:39.930Z,78.36
2019-05-16T19:08:43.214Z,78.86
2019-05-16T19:13:47.461Z,78.44
2019-05-16T19:18:50.893Z,78.90
2019-05-16T19:23:56.159Z,78.72
2019-05-16T19:28:59.230Z,78.51
2019-05-16T19:34:02.570Z,78.14
2019-05-16T19:39:08.052Z,78.57
2019-05-16T19:44:12.343Z,78.11
2019-05-16T19:49:15.660Z,77.30
2019-05-16T19:54:18.931Z,77.24
2019-05-16T19:59:22.221Z,78.05
2019-05-16T20:04:27.374Z,77.50
2019-05-16T20:09:30.538Z,77.94
2019-05-16T20:14:33.847Z,77.55
2019-05-16T20:19:37.163Z,77.85
2019-05-16T20:24:40.737Z,78.24
2019-05-16T20:29:44.114Z,77.71
2019-05-16T20:34:47.395Z,78.79
2019-05-16T20:39:50.679Z,78.21
2019-05-16T20:44:53.975Z,79.32
2019-05-16T20:49:57.376Z,77.84
2019-05-16T20:55:00.746Z,78.33
2019-05-16T21:00:07.263Z,80.25
2019-05-16T21:05:10.893Z,80.84
2019-05-16T21:10:16.693Z,79.63
2019-05-16T21:15:19.482Z,79.00
2019-05-16T21:20:22.762Z,78.74
2019-05-16T21:25:26.434Z,79.48
2019-05-16T21:30:29.729Z,78.47
2019-05-16T21:35:33.025Z,78.53
2019-05-16T21:40:37.096Z,78.26
2019-05-16T21:45:40.593Z,78.01
2019-05-16T21:50:46.177Z,78.66
2019-05-16T21:55:48.946Z,80.49
2019-05-16T22:00:56.560Z,82.11
2019-05-16T22:06:00.940Z,82.15
2019-05-16T22:11:06.581Z,80.77
2019-05-16T22:16:09.371Z,80.10
2019-05-16T22:21:12.747Z,79.83
2019-05-16T22:26:16.809Z,80.17
2019-05-16T22:31:20.329Z,78.35
2019-05-16T22:36:23.643Z,80.29
2019-05-16T22:41:26.920Z,80.39
2019-05-16T22:46:30.220Z,78.57
2019-05-16T22:51:33.512Z,78.20
2019-05-16T22:56:37.504Z,80.00
2019-05-16T23:01:41.072Z,80.94
2019-05-16T23:06:44.376Z,79.26
2019-05-16T23:11:48.653Z,79.58
2019-05-16T23:16:51.936Z,79.69
2019-05-16T23:21:56.838Z,79.92
2019-05-16T23:27:00.292Z,80.03
2019-05-16T23:32:03.663Z,80.55
2019-05-16T23:37:09.878Z,80.66
2019-05-16T23:42:13.203Z,80.84
2019-05-16T23:47:16.578Z,80.73
2019-05-16T23:52:19.857Z,80.75
2019-05-16T23:57:23.154Z,80.99
